Time;durP1;ratioP1;P1;durP2;ratioP2;P2;SDS_P1;SDS_P2;PMS_P1;PMS_P2;Temp;Humidity;BMP_temperature;BMP_pressure;BME280_temperature;BME280_humidity;BME280_pressure;Samples;Min_cycle;Max_cycle;Signal;HPM_P1;HPM_P2
2022/03/12 00:01:26;;;;;;;0.20;0.20;;;;;;;0.75;48.92;101607.47;5037288;28;20045;-84
2022/03/12 00:03:55;;;;;;;0.13;0.13;;;;;;;0.93;49.10;101644.53;5040908;28;20052;-84
2022/03/12 00:06:32;;;;;;;0.20;0.20;;;;;;;0.91;49.10;101643.88;5041122;28;20045;-84
2022/03/12 00:09:06;;;;;;;0.20;0.20;;;;;;;0.95;48.59;101647.84;5043163;28;20388;-84
2022/03/12 00:11:45;;;;;;;0.20;0.20;;;;;;;0.85;49.33;101654.34;5033774;28;20061;-84
2022/03/12 00:14:15;;;;;;;0.20;0.20;;;;;;;0.93;48.44;101664.13;5048331;28;20049;-84
2022/03/12 00:16:49;;;;;;;0.20;0.20;;;;;;;0.75;48.84;101615.50;5045661;28;20056;-84
2022/03/12 00:19:22;;;;;;;0.20;0.20;;;;;;;0.93;47.92;101645.38;5033441;28;20072;-83
2022/03/12 00:21:51;;;;;;;0.10;0.10;;;;;;;0.85;48.07;101648.16;5044417;28;20041;-83
2022/03/12 00:24:25;;;;;;;0.17;0.17;;;;;;;0.53;48.91;101617.34;5046282;28;20057;-83
2022/03/12 00:26:56;;;;;;;0.20;0.20;;;;;;;0.82;48.16;101649.38;5036194;28;20049;-84
2022/03/12 00:29:32;;;;;;;0.20;0.20;;;;;;;0.84;47.95;101651.84;5043936;28;20048;-84
2022/03/12 00:32:07;;;;;;;0.20;0.20;;;;;;;0.81;48.04;101652.25;5040830;28;20401;-85
2022/03/12 00:34:35;;;;;;;0.20;0.20;;;;;;;0.73;48.38;101655.06;5045525;28;20052;-84
2022/03/12 00:37:08;;;;;;;0.20;0.20;;;;;;;0.72;48.33;101646.19;5050388;28;20409;-84
2022/03/12 00:39:44;;;;;;;0.20;0.20;;;;;;;0.66;48.48;101657.66;5039427;28;20037;-84
2022/03/12 00:42:19;;;;;;;0.10;0.10;;;;;;;0.61;49.34;101660.91;5040446;28;20068;-84
2022/03/12 00:44:52;;;;;;;0.20;0.20;;;;;;;0.59;49.21;101662.13;5046291;28;20478;-86
2022/03/12 00:47:27;;;;;;;0.20;0.20;;;;;;;0.63;49.69;101663.41;5034405;28;20529;-84
2022/03/12 00:50:01;;;;;;;0.20;0.20;;;;;;;0.37;48.52;101629.13;5050057;28;20497;-83
2022/03/12 00:52:34;;;;;;;0.20;0.20;;;;;;;0.61;48.96;101652.06;5033234;28;20045;-83
2022/03/12 00:55:07;;;;;;;0.17;0.17;;;;;;;0.61;49.90;101658.25;5034821;28;20045;-84
2022/03/12 00:57:42;;;;;;;0.20;0.20;;;;;;;0.25;49.17;101620.72;5048103;28;20055;-83
2022/03/12 01:00:19;;;;;;;0.20;0.20;;;;;;;0.42;49.41;101638.25;5063558;28;20056;-83
2022/03/12 01:02:52;;;;;;;0.20;0.20;;;;;;;0.43;49.86;101657.81;5055610;28;20053;-83
2022/03/12 01:05:43;;;;;;;0.20;0.20;;;;;;;0.38;48.95;101654.88;5061985;28;20651;-85
2022/03/12 01:08:11;;;;;;;0.40;0.28;;;;;;;0.40;49.48;101642.97;5048119;28;20064;-83
2022/03/12 01:10:46;;;;;;;0.13;0.13;;;;;;;0.46;49.37;101644.06;5034449;28;20045;-84
2022/03/12 01:13:21;;;;;;;0.17;0.17;;;;;;;0.42;48.70;101648.94;5046797;28;20060;-84
2022/03/12 01:15:55;;;;;;;0.20;0.20;;;;;;;0.51;48.57;101644.31;5033433;28;20045;-85
2022/03/12 01:18:28;;;;;;;0.20;0.20;;;;;;;0.56;47.84;101652.59;5041941;28;20049;-83
2022/03/12 01:21:08;;;;;;;0.20;0.20;;;;;;;0.41;49.20;101655.31;5048117;28;20048;-84
2022/03/12 01:23:36;;;;;;;0.17;0.17;;;;;;;0.42;49.31;101657.00;5048519;28;20049;-84
2022/03/12 01:26:11;;;;;;;0.20;0.20;;;;;;;0.32;49.58;101651.13;5041157;28;20053;-84
2022/03/12 01:28:43;;;;;;;0.20;0.20;;;;;;;0.31;48.95;101658.28;5034443;28;20041;-85
2022/03/12 01:31:11;;;;;;;0.20;0.20;;;;;;;0.29;48.21;101655.00;5047778;28;20045;-84
2022/03/12 01:33:44;;;;;;;0.20;0.20;;;;;;;0.04;49.63;101624.19;5038141;28;20048;-84
2022/03/12 01:36:17;;;;;;;0.20;0.20;;;;;;;0.20;49.08;101625.84;5034851;28;20045;-84
2022/03/12 01:38:48;;;;;;;0.20;0.20;;;;;;;0.22;48.21;101624.63;5044510;28;20092;-85
2022/03/12 01:41:22;;;;;;;0.20;0.20;;;;;;;0.32;48.18;101641.22;5036954;28;20053;-84
2022/03/12 01:43:53;;;;;;;0.20;0.20;;;;;;;0.24;48.55;101648.53;5043824;28;20524;-85
2022/03/12 01:46:32;;;;;;;0.20;0.20;;;;;;;0.24;47.73;101640.50;5052872;28;20399;-85
2022/03/12 01:49:09;;;;;;;0.20;0.20;;;;;;;0.30;47.95;101635.25;5038274;28;20049;-84
2022/03/12 01:51:44;;;;;;;0.20;0.20;;;;;;;0.32;48.12;101633.19;5044490;28;20046;-85
2022/03/12 01:54:13;;;;;;;0.20;0.20;;;;;;;0.27;47.38;101632.09;5042410;28;20056;-84
2022/03/12 01:56:46;;;;;;;0.28;0.28;;;;;;;0.21;48.37;101622.13;5037180;28;20045;-84
2022/03/12 01:59:16;;;;;;;0.20;0.20;;;;;;;0.20;48.79;101640.03;5036426;28;20045;-84
2022/03/12 02:01:52;;;;;;;0.20;0.20;;;;;;;0.10;48.07;101631.47;5047856;28;20052;-84
2022/03/12 02:04:22;;;;;;;0.20;0.20;;;;;;;0.04;48.25;101626.88;5061341;28;20044;-84
2022/03/12 02:06:52;;;;;;;0.20;0.20;;;;;;;0.10;47.50;101626.13;5037667;28;20049;-84
2022/03/12 02:09:25;;;;;;;0.20;0.20;;;;;;;0.12;48.74;101640.97;5036753;28;20053;-84
2022/03/12 02:11:59;;;;;;;0.17;0.17;;;;;;;0.13;47.96;101625.75;5044593;28;20053;-84
2022/03/12 02:14:29;;;;;;;0.20;0.20;;;;;;;0.07;48.03;101621.13;5041443;28;20052;-84
2022/03/12 02:17:08;;;;;;;0.20;0.20;;;;;;;0.06;48.46;101623.00;5046029;28;20044;-84
2022/03/12 02:19:41;;;;;;;0.20;0.20;;;;;;;0.07;47.32;101616.63;5040258;28;20395;-84
2022/03/12 02:22:16;;;;;;;0.20;0.20;;;;;;;0.08;47.90;101625.47;5036950;28;20054;-85
2022/03/12 02:24:50;;;;;;;0.20;0.20;;;;;;;0.01;48.23;101616.53;5046633;28;20398;-84
2022/03/12 02:27:25;;;;;;;0.30;0.30;;;;;;;0.03;48.69;101617.16;5044737;28;20060;-85
2022/03/12 02:29:59;;;;;;;0.20;0.20;;;;;;;-0.03;48.82;101619.59;5033401;28;20045;-85
2022/03/12 02:32:32;;;;;;;0.20;0.20;;;;;;;-0.23;48.57;101584.53;5044155;28;20046;-86
2022/03/12 02:35:10;;;;;;;0.20;0.20;;;;;;;0.00;48.77;101613.03;5031449;28;20049;-84
2022/03/12 02:37:48;;;;;;;0.20;0.20;;;;;;;-0.18;48.25;101600.03;5063349;28;20047;-84
2022/03/12 02:40:23;;;;;;;0.30;0.30;;;;;;;-0.13;49.29;101610.19;5036883;28;20049;-84
2022/03/12 02:42:56;;;;;;;0.25;0.25;;;;;;;-0.18;49.19;101616.94;5050672;28;20056;-84
2022/03/12 02:45:27;;;;;;;0.13;0.13;;;;;;;-0.26;49.37;101608.16;5050166;28;20052;-84
2022/03/12 02:48:00;;;;;;;0.20;0.20;;;;;;;-0.16;50.08;101611.38;5050696;28;20040;-83
2022/03/12 02:50:28;;;;;;;0.20;0.20;;;;;;;-0.25;49.25;101589.25;5042881;28;20056;-83
2022/03/12 02:53:02;;;;;;;0.20;0.20;;;;;;;-0.10;48.36;101615.16;5061068;28;20477;-84
2022/03/12 02:55:41;;;;;;;0.30;0.30;;;;;;;-0.28;48.74;101600.31;5032442;28;20064;-85
2022/03/12 02:58:16;;;;;;;0.20;0.20;;;;;;;-0.26;50.00;101614.34;5042896;28;20049;-84
2022/03/12 03:00:49;;;;;;;0.20;0.20;;;;;;;-0.37;50.54;101593.41;5040110;28;20049;-84
2022/03/12 03:03:22;;;;;;;0.17;0.17;;;;;;;-0.29;49.84;101613.88;5034483;28;20049;-84
2022/03/12 03:05:56;;;;;;;0.22;0.22;;;;;;;-0.25;49.35;101613.34;5031377;28;20050;-84
2022/03/12 03:08:29;;;;;;;0.20;0.20;;;;;;;-0.25;49.69;101607.13;5036308;28;20498;-84
2022/03/12 03:10:59;;;;;;;0.20;0.20;;;;;;;-0.50;49.52;101569.16;5031945;28;20401;-85
2022/03/12 03:13:44;;;;;;;0.20;0.20;;;;;;;-0.36;49.96;101603.91;5043064;28;20398;-84
2022/03/12 03:16:21;;;;;;;0.20;0.20;;;;;;;-0.28;49.62;101612.88;5043596;28;20056;-84
2022/03/12 03:18:54;;;;;;;0.20;0.20;;;;;;;-0.32;49.35;101616.91;5050272;28;20053;-84
2022/03/12 03:21:28;;;;;;;0.20;0.20;;;;;;;-0.36;49.46;101606.59;5038136;28;20041;-84
2022/03/12 03:24:01;;;;;;;0.20;0.20;;;;;;;-0.42;50.27;101599.28;5041461;28;20057;-85
2022/03/12 03:26:53;;;;;;;0.20;0.20;;;;;;;-0.46;50.29;101600.69;5037861;28;20045;-84
2022/03/12 03:29:22;;;;;;;0.20;0.20;;;;;;;-0.59;50.88;101603.19;5048175;28;20080;-84
2022/03/12 03:31:51;;;;;;;0.20;0.20;;;;;;;-0.61;50.94;101594.50;5037992;28;20053;-84
2022/03/12 03:34:25;;;;;;;0.20;0.20;;;;;;;-0.62;51.34;101596.34;5047813;28;20050;-83
2022/03/12 03:36:59;;;;;;;0.30;0.30;;;;;;;-0.78;51.85;101578.63;5042184;28;20050;-84
2022/03/12 03:39:29;;;;;;;0.20;0.20;;;;;;;-0.64;51.76;101606.38;5040698;28;20037;-84
2022/03/12 03:42:07;;;;;;;0.20;0.20;;;;;;;-0.60;51.39;101605.00;5039084;28;20041;-84
2022/03/12 03:44:40;;;;;;;0.20;0.20;;;;;;;-0.62;51.84;101601.69;5032622;28;20045;-84
2022/03/12 03:47:08;;;;;;;0.20;0.20;;;;;;;-0.59;51.29;101600.50;5050218;28;20056;-84
2022/03/12 03:49:37;;;;;;;0.20;0.20;;;;;;;-0.62;51.11;101601.69;5055356;28;20060;-84
2022/03/12 03:52:07;;;;;;;0.20;0.20;;;;;;;-0.71;51.41;101603.59;5054630;28;20057;-84
2022/03/12 03:54:43;;;;;;;0.20;0.20;;;;;;;-0.76;51.97;101594.47;5055806;28;20067;-84
2022/03/12 03:57:18;;;;;;;0.20;0.20;;;;;;;-0.79;51.42;101597.50;5054210;28;20052;-84
2022/03/12 03:59:51;;;;;;;0.20;0.20;;;;;;;-0.80;52.29;101598.50;5054328;28;20057;-84
2022/03/12 04:02:24;;;;;;;0.20;0.20;;;;;;;-0.78;52.25;101591.97;5054437;28;20501;-83
2022/03/12 04:04:53;;;;;;;0.20;0.20;;;;;;;-0.92;51.95;101582.09;5048426;28;20052;-83
2022/03/12 04:07:26;;;;;;;0.20;0.20;;;;;;;-0.84;52.33;101597.22;5053732;28;20520;-83
2022/03/12 04:09:54;;;;;;;0.20;0.20;;;;;;;-0.81;51.35;101595.03;5055580;28;20052;-84
2022/03/12 04:12:26;;;;;;;0.25;0.25;;;;;;;-0.84;52.23;101591.88;5054303;28;20056;-84
2022/03/12 04:14:56;;;;;;;0.20;0.20;;;;;;;-0.89;51.80;101601.25;5050573;28;20077;-84
2022/03/12 04:17:24;;;;;;;0.20;0.20;;;;;;;-0.93;52.75;101588.47;5033794;28;20049;-84
2022/03/12 04:19:57;;;;;;;0.20;0.20;;;;;;;-0.89;51.78;101592.44;5051360;28;20045;-84
2022/03/12 04:22:31;;;;;;;0.20;0.20;;;;;;;-0.88;52.05;101591.44;5035413;28;20042;-83
2022/03/12 04:24:59;;;;;;;0.20;0.20;;;;;;;-0.91;52.25;101594.44;5037535;28;20666;-83
2022/03/12 04:27:34;;;;;;;0.10;0.10;;;;;;;-0.87;51.86;101585.03;5049959;28;20046;-84
2022/03/12 04:30:08;;;;;;;0.30;0.30;;;;;;;-1.18;52.32;101542.44;5050670;28;20064;-84
2022/03/12 04:32:43;;;;;;;0.22;0.22;;;;;;;-0.82;51.24;101587.19;5050788;28;20049;-85
2022/03/12 04:35:11;;;;;;;0.20;0.20;;;;;;;-0.77;51.47;101580.28;5050768;28;20413;-84
2022/03/12 04:37:39;;;;;;;0.20;0.20;;;;;;;-0.81;51.94;101573.63;5053489;28;20045;-84
2022/03/12 04:40:11;;;;;;;0.17;0.17;;;;;;;-0.83;51.47;101581.00;5052855;28;20052;-84
2022/03/12 04:42:45;;;;;;;0.20;0.20;;;;;;;-0.79;51.44;101576.94;5053644;28;20052;-83
2022/03/12 04:45:21;;;;;;;0.10;0.10;;;;;;;-0.98;51.31;101540.06;5054617;28;20048;-84
2022/03/12 04:47:51;;;;;;;0.20;0.20;;;;;;;-0.89;51.40;101573.72;5053376;28;20053;-84
2022/03/12 04:50:22;;;;;;;0.25;0.20;;;;;;;-0.87;51.08;101567.19;5053706;28;20398;-84
2022/03/12 04:52:59;;;;;;;0.20;0.20;;;;;;;-0.85;50.67;101569.69;5053729;28;20053;-84
2022/03/12 04:55:29;;;;;;;0.20;0.20;;;;;;;-0.90;52.21;101572.06;5033482;28;20049;-84
2022/03/12 04:57:58;;;;;;;0.20;0.20;;;;;;;-0.93;51.96;101572.44;5044123;28;20053;-83
2022/03/12 05:00:36;;;;;;;0.20;0.20;;;;;;;-0.97;51.66;101563.94;5038665;28;20045;-84
2022/03/12 05:03:11;;;;;;;0.20;0.20;;;;;;;-0.96;51.51;101570.13;5034721;28;20048;-84
2022/03/12 05:05:46;;;;;;;0.20;0.20;;;;;;;-0.86;51.30;101573.34;5034430;28;20057;-83
2022/03/12 05:08:21;;;;;;;0.20;0.20;;;;;;;-0.91;50.70;101573.06;5048935;28;20060;-84
2022/03/12 05:10:57;;;;;;;0.20;0.20;;;;;;;-1.06;51.73;101571.19;5034298;28;20037;-84
2022/03/12 05:13:35;;;;;;;0.20;0.20;;;;;;;-0.98;51.37;101588.16;5045059;28;20079;-85
2022/03/12 05:16:09;;;;;;;0.20;0.20;;;;;;;-0.97;51.33;101590.66;5053168;28;20041;-85
2022/03/12 05:18:42;;;;;;;0.20;0.20;;;;;;;-1.00;52.13;101591.03;5046667;28;20060;-85
2022/03/12 05:21:16;;;;;;;0.20;0.20;;;;;;;-1.06;51.94;101592.56;5042191;28;20060;-84
2022/03/12 05:23:44;;;;;;;0.20;0.20;;;;;;;-1.03;53.00;101592.19;5047550;28;20378;-85
2022/03/12 05:26:12;;;;;;;0.20;0.20;;;;;;;-1.20;52.69;101594.19;5038111;28;20509;-84
2022/03/12 05:28:46;;;;;;;0.20;0.20;;;;;;;-1.24;52.30;101592.06;5052482;28;20048;-85
2022/03/12 05:31:14;;;;;;;0.20;0.20;;;;;;;-1.07;52.00;101600.78;5048889;28;20562;-84
2022/03/12 05:33:48;;;;;;;0.20;0.20;;;;;;;-1.08;52.57;101617.81;5039112;28;20041;-84
2022/03/12 05:36:21;;;;;;;0.20;0.20;;;;;;;-1.08;51.58;101617.81;5039555;28;20056;-83
2022/03/12 05:38:49;;;;;;;0.20;0.20;;;;;;;-1.18;51.90;101615.38;5040774;28;20054;-84
2022/03/12 05:41:17;;;;;;;0.20;0.20;;;;;;;-1.16;53.17;101625.88;5036807;28;20048;-84
2022/03/12 05:43:47;;;;;;;0.13;0.13;;;;;;;-1.21;53.20;101626.41;5048874;28;20055;-85
2022/03/12 05:46:21;;;;;;;0.10;0.10;;;;;;;-1.16;52.94;101616.03;5051124;28;20049;-86
2022/03/12 05:48:54;;;;;;;0.20;0.20;;;;;;;-1.09;52.38;101616.13;5038234;28;20053;-83
2022/03/12 05:51:22;;;;;;;0.20;0.20;;;;;;;-1.12;52.77;101632.53;5041162;28;20601;-85
2022/03/12 05:53:55;;;;;;;0.20;0.20;;;;;;;-1.05;53.24;101631.66;5034652;28;20048;-84
2022/03/12 05:56:28;;;;;;;0.20;0.20;;;;;;;-1.20;53.61;101622.75;5052259;28;20056;-83
2022/03/12 05:58:59;;;;;;;0.10;0.10;;;;;;;-1.20;53.13;101620.91;5042844;28;20049;-84
2022/03/12 06:01:32;;;;;;;0.20;0.20;;;;;;;-1.06;52.44;101638.00;5048529;28;20400;-84
2022/03/12 06:04:01;;;;;;;0.10;0.10;;;;;;;-1.07;54.21;101635.50;5061046;28;20057;-84
2022/03/12 06:06:35;;;;;;;0.20;0.20;;;;;;;-1.11;53.71;101635.00;5044822;28;20392;-84
2022/03/12 06:09:08;;;;;;;0.20;0.20;;;;;;;-0.96;52.77;101635.06;5045465;28;20050;-84
2022/03/12 06:11:42;;;;;;;0.13;0.13;;;;;;;-1.04;53.53;101632.47;5044572;28;20115;-84
2022/03/12 06:14:17;;;;;;;0.10;0.10;;;;;;;-0.93;52.78;101623.19;5050587;28;20061;-84
2022/03/12 06:16:47;;;;;;;0.15;0.15;;;;;;;-0.93;53.49;101632.03;5047361;28;20067;-84
2022/03/12 06:19:21;;;;;;;0.20;0.20;;;;;;;-0.90;53.05;101645.06;5040268;28;20050;-84
2022/03/12 06:21:56;;;;;;;0.10;0.10;;;;;;;-0.89;53.52;101645.88;5046463;28;20056;-84
2022/03/12 06:24:29;;;;;;;0.10;0.10;;;;;;;-0.87;53.74;101639.34;5061395;28;20048;-84
2022/03/12 06:27:03;;;;;;;0.38;0.20;;;;;;;-0.84;53.97;101643.50;5036762;28;20056;-84
2022/03/12 06:29:33;;;;;;;0.10;0.10;;;;;;;-0.80;54.28;101649.28;5038582;28;20057;-84
2022/03/12 06:32:01;;;;;;;0.20;0.20;;;;;;;-0.77;53.83;101665.81;5039970;28;20064;-84
2022/03/12 06:34:35;;;;;;;0.20;0.20;;;;;;;-0.71;54.15;101657.06;5035923;28;20068;-84
2022/03/12 06:37:08;;;;;;;0.25;0.25;;;;;;;-0.73;53.76;101660.94;5046846;28;20068;-83
2022/03/12 06:39:41;;;;;;;0.30;0.30;;;;;;;-0.89;54.50;101613.81;5041317;28;20048;-83
2022/03/12 06:42:16;;;;;;;0.20;0.20;;;;;;;-0.70;53.33;101653.38;5034415;28;20053;-84
2022/03/12 06:44:56;;;;;;;0.20;0.20;;;;;;;-0.64;53.81;101651.81;5047277;28;20053;-83
2022/03/12 06:47:32;;;;;;;0.20;0.20;;;;;;;-0.60;54.03;101658.47;5039614;28;20402;-84
2022/03/12 06:50:01;;;;;;;0.28;0.28;;;;;;;-0.59;53.81;101652.13;5035047;28;20726;-83
2022/03/12 06:52:30;;;;;;;0.20;0.20;;;;;;;-0.52;52.97;101650.38;5032688;28;20068;-84
2022/03/12 06:54:58;;;;;;;0.17;0.17;;;;;;;-0.43;52.80;101655.66;5035892;28;20060;-84
2022/03/12 06:57:33;;;;;;;0.20;0.20;;;;;;;-0.44;53.60;101667.34;5062879;28;20064;-84
2022/03/12 07:00:14;;;;;;;0.20;0.20;;;;;;;-0.37;52.49;101650.41;5042247;28;20057;-84
2022/03/12 07:02:47;;;;;;;0.10;0.10;;;;;;;-0.39;53.54;101665.81;5044734;28;20041;-83
2022/03/12 07:05:21;;;;;;;0.20;0.20;;;;;;;-0.33;52.42;101661.56;5036374;28;20520;-83
2022/03/12 07:07:51;;;;;;;0.30;0.30;;;;;;;-0.33;53.64;101658.06;5033386;28;20057;-83
2022/03/12 07:10:25;;;;;;;0.20;0.20;;;;;;;-0.23;53.67;101661.31;5040406;28;20052;-83
2022/03/12 07:12:58;;;;;;;0.20;0.20;;;;;;;-0.17;52.17;101660.56;5034413;28;20052;-84
2022/03/12 07:15:33;;;;;;;0.20;0.20;;;;;;;-0.11;51.53;101667.00;5042077;28;20052;-83
2022/03/12 07:18:06;;;;;;;0.25;0.25;;;;;;;-0.02;51.78;101677.44;5040634;28;20413;-84
2022/03/12 07:20:39;;;;;;;0.10;0.10;;;;;;;-0.01;52.43;101686.31;5043473;28;20060;-84
2022/03/12 07:23:12;;;;;;;0.20;0.20;;;;;;;0.06;50.86;101686.41;5049496;28;20054;-83
2022/03/12 07:25:45;;;;;;;0.15;0.15;;;;;;;0.13;51.93;101687.31;5048183;28;20053;-82
2022/03/12 07:28:19;;;;;;;0.20;0.20;;;;;;;0.14;50.98;101686.31;5037133;28;20437;-82
2022/03/12 07:30:48;;;;;;;0.20;0.20;;;;;;;0.14;51.77;101683.63;5048343;28;20053;-83
2022/03/12 07:33:21;;;;;;;0.17;0.17;;;;;;;0.07;51.82;101674.66;5050019;28;20045;-82
2022/03/12 07:35:49;;;;;;;0.20;0.20;;;;;;;0.26;51.27;101686.66;5045578;28;20061;-84
2022/03/12 07:38:22;;;;;;;0.22;0.22;;;;;;;0.40;50.85;101699.22;5053094;28;20068;-83
2022/03/12 07:40:55;;;;;;;0.20;0.20;;;;;;;0.36;51.22;101692.56;5043606;28;20409;-84
2022/03/12 07:43:29;;;;;;;0.17;0.17;;;;;;;0.43;51.49;101692.63;5036923;28;20461;-84
2022/03/12 07:46:04;;;;;;;0.20;0.20;;;;;;;0.53;50.50;101692.34;5044772;28;20861;-81
2022/03/12 07:48:37;;;;;;;0.20;0.20;;;;;;;0.60;49.75;101698.59;5050426;28;20417;-84
2022/03/12 07:51:06;;;;;;;0.20;0.20;;;;;;;0.54;50.16;101683.28;5040987;28;20045;-81
2022/03/12 07:53:34;;;;;;;0.20;0.20;;;;;;;0.63;49.57;101687.50;5043641;28;20041;-83
2022/03/12 07:56:08;;;;;;;0.20;0.20;;;;;;;0.73;49.03;101676.50;5040723;28;20412;-82
2022/03/12 07:58:37;;;;;;;0.20;0.20;;;;;;;0.82;49.00;101686.91;5040879;28;20062;-82
2022/03/12 08:01:12;;;;;;;0.20;0.20;;;;;;;0.89;48.53;101683.47;5043734;28;20131;-83
2022/03/12 08:03:45;;;;;;;0.20;0.20;;;;;;;1.04;47.80;101689.59;5047211;28;20435;-83
2022/03/12 08:06:20;;;;;;;0.20;0.20;;;;;;;0.93;49.00;101671.34;5047797;28;20045;-82
2022/03/12 08:08:53;;;;;;;0.20;0.20;;;;;;;0.99;48.55;101679.44;5046584;28;20527;-83
2022/03/12 08:11:28;;;;;;;0.10;0.10;;;;;;;1.01;48.48;101663.19;5057592;28;20056;-83
2022/03/12 08:14:03;;;;;;;0.20;0.20;;;;;;;1.13;48.21;101692.97;5041291;28;20049;-82
2022/03/12 08:16:38;;;;;;;0.20;0.20;;;;;;;1.11;48.01;101678.94;5048228;28;20075;-83
2022/03/12 08:19:12;;;;;;;0.20;0.20;;;;;;;1.27;48.21;101683.19;5043578;28;20517;-83
2022/03/12 08:21:40;;;;;;;0.10;0.10;;;;;;;1.37;48.13;101691.75;5042240;28;20042;-82
2022/03/12 08:24:09;;;;;;;0.20;0.20;;;;;;;1.38;46.88;101690.69;5040103;28;20500;-82
2022/03/12 08:26:42;;;;;;;0.20;0.20;;;;;;;1.45;47.22;101682.72;5040391;28;20409;-82
2022/03/12 08:29:18;;;;;;;0.20;0.20;;;;;;;1.56;47.65;101676.84;5042580;28;20524;-83
2022/03/12 08:31:52;;;;;;;0.20;0.20;;;;;;;1.62;46.81;101673.38;5047075;28;20417;-83
2022/03/12 08:34:26;;;;;;;0.20;0.20;;;;;;;1.65;47.50;101680.19;5036830;28;20037;-82
2022/03/12 08:36:59;;;;;;;0.20;0.20;;;;;;;1.75;45.85;101683.34;5037052;28;20056;-82
2022/03/12 08:39:32;;;;;;;0.15;0.15;;;;;;;1.77;46.26;101675.09;5036357;28;20049;-82
2022/03/12 08:42:01;;;;;;;0.20;0.20;;;;;;;1.90;46.30;101687.78;5042150;28;20052;-83
2022/03/12 08:44:29;;;;;;;0.20;0.20;;;;;;;1.92;46.08;101683.88;5037637;28;20060;-80
2022/03/12 08:46:58;;;;;;;0.20;0.20;;;;;;;2.00;46.34;101688.25;5040673;28;20041;-80
2022/03/12 08:49:31;;;;;;;0.20;0.20;;;;;;;2.01;45.03;101676.50;5039195;28;20053;-81
2022/03/12 08:52:07;;;;;;;0.10;0.10;;;;;;;2.04;46.34;101676.09;5040328;28;20041;-81
2022/03/12 08:54:41;;;;;;;0.20;0.20;;;;;;;2.11;45.34;101678.81;5036069;28;20478;-82
2022/03/12 08:57:09;;;;;;;0.20;0.20;;;;;;;2.17;46.42;101676.16;5048507;28;20072;-83
2022/03/12 08:59:42;;;;;;;0.20;0.20;;;;;;;2.31;45.58;101678.94;5038551;28;20056;-82
2022/03/12 09:02:11;;;;;;;0.20;0.20;;;;;;;2.23;44.94;101665.66;5040275;28;20053;-82
2022/03/12 09:04:39;;;;;;;0.10;0.10;;;;;;;2.36;45.76;101671.06;5041040;28;20056;-84
2022/03/12 09:07:13;;;;;;;0.13;0.13;;;;;;;2.51;44.73;101673.63;5041751;28;20059;-82
2022/03/12 09:09:46;;;;;;;0.20;0.20;;;;;;;2.45;45.29;101666.38;5036298;28;20049;-82
2022/03/12 09:12:19;;;;;;;0.10;0.10;;;;;;;2.46;44.03;101659.94;5042008;28;20045;-82
2022/03/12 09:14:48;;;;;;;0.20;0.20;;;;;;;2.61;44.36;101674.06;5039682;28;20402;-83
2022/03/12 09:17:17;;;;;;;0.20;0.20;;;;;;;2.68;44.22;101657.94;5036204;28;20045;-83
2022/03/12 09:19:50;;;;;;;0.10;0.10;;;;;;;2.80;43.58;101660.88;5038475;28;20049;-82
2022/03/12 09:22:18;;;;;;;0.20;0.20;;;;;;;2.75;43.27;101656.13;5039506;28;20053;-83
2022/03/12 09:24:47;;;;;;;0.20;0.20;;;;;;;2.96;43.66;101660.50;5034178;28;20053;-83
2022/03/12 09:27:15;;;;;;;0.30;0.30;;;;;;;3.05;45.11;101663.81;5042832;28;20067;-83
2022/03/12 09:29:48;;;;;;;0.17;0.17;;;;;;;3.25;42.41;101652.25;5040357;28;20053;-82
2022/03/12 09:32:24;;;;;;;0.20;0.20;;;;;;;3.43;43.17;101655.13;5040364;28;20052;-83
2022/03/12 09:34:53;;;;;;;0.20;0.20;;;;;;;3.29;42.99;101653.50;5060631;28;20052;-83
2022/03/12 09:37:26;;;;;;;0.13;0.13;;;;;;;3.31;42.60;101638.78;5043649;28;20042;-82
2022/03/12 09:40:00;;;;;;;0.10;0.10;;;;;;;3.33;41.64;101604.44;5040294;28;20045;-83
2022/03/12 09:42:30;;;;;;;0.17;0.17;;;;;;;3.64;42.10;101648.69;5049268;28;20054;-83
2022/03/12 09:45:04;;;;;;;0.10;0.10;;;;;;;3.68;42.37;101646.41;5034982;28;20049;-84
2022/03/12 09:47:39;;;;;;;0.20;0.20;;;;;;;3.84;42.24;101650.50;5039826;28;20044;-83
2022/03/12 09:50:12;;;;;;;0.20;0.20;;;;;;;3.95;40.60;101636.41;5051520;28;20392;-83
2022/03/12 09:52:46;;;;;;;0.20;0.20;;;;;;;4.01;41.23;101642.81;5048289;28;20399;-83
2022/03/12 09:55:15;;;;;;;0.20;0.20;;;;;;;4.05;41.32;101633.28;5038806;28;20049;-83
2022/03/12 09:57:48;;;;;;;0.10;0.10;;;;;;;4.18;41.63;101643.97;5031990;28;20497;-84
2022/03/12 10:00:18;;;;;;;0.20;0.20;;;;;;;4.23;41.86;101641.47;5038034;28;20053;-83
2022/03/12 10:02:52;;;;;;;0.20;0.20;;;;;;;4.32;40.92;101638.53;5037938;28;20052;-84
2022/03/12 10:05:20;;;;;;;0.20;0.20;;;;;;;4.46;40.24;101629.38;5040837;28;20072;-82
2022/03/12 10:07:57;;;;;;;0.20;0.20;;;;;;;4.52;39.38;101636.56;5037992;28;20059;-84
2022/03/12 10:10:31;;;;;;;0.20;0.20;;;;;;;4.65;40.59;101632.16;5053307;28;20049;-83
2022/03/12 10:13:04;;;;;;;0.30;0.30;;;;;;;4.64;41.27;101620.53;5034276;28;20058;-83
2022/03/12 10:15:33;;;;;;;0.20;0.20;;;;;;;4.74;40.45;101622.75;5042700;28;20040;-84
2022/03/12 10:18:07;;;;;;;0.20;0.20;;;;;;;4.73;40.40;101616.53;5030892;28;20413;-83
2022/03/12 10:20:40;;;;;;;0.20;0.20;;;;;;;4.93;37.95;101615.59;5039860;28;20048;-83
2022/03/12 10:23:08;;;;;;;0.30;0.30;;;;;;;4.88;39.37;101610.81;5053279;28;20589;-83
2022/03/12 10:25:45;;;;;;;0.20;0.20;;;;;;;4.89;39.58;101607.09;5047961;28;20053;-84
2022/03/12 10:28:18;;;;;;;0.20;0.20;;;;;;;5.00;38.43;101608.25;5042993;28;20462;-84
2022/03/12 10:30:52;;;;;;;0.20;0.20;;;;;;;5.16;39.10;101616.84;5040851;28;20650;-83
2022/03/12 10:33:24;;;;;;;0.20;0.20;;;;;;;5.27;39.03;101603.47;5035070;28;20060;-83
2022/03/12 10:36:10;;;;;;;0.20;0.20;;;;;;;5.40;39.23;101601.66;5040215;28;20053;-83
2022/03/12 10:38:45;;;;;;;0.20;0.20;;;;;;;5.37;38.27;101585.94;5034236;28;20663;-84
2022/03/12 10:41:18;;;;;;;0.20;0.20;;;;;;;5.56;36.54;101602.97;5035145;28;20076;-83
2022/03/12 10:43:54;;;;;;;0.20;0.20;;;;;;;5.51;38.40;101597.41;5041331;28;20057;-84
2022/03/12 10:46:27;;;;;;;0.20;0.20;;;;;;;5.51;38.46;101597.41;5049970;28;20494;-83
2022/03/12 10:49:03;;;;;;;0.10;0.10;;;;;;;5.44;38.56;101595.63;5040090;28;20064;-82
2022/03/12 10:51:34;;;;;;;0.17;0.17;;;;;;;5.54;38.15;101603.22;5039833;28;20069;-83
2022/03/12 10:54:15;;;;;;;0.10;0.10;;;;;;;5.83;36.64;101594.56;5035091;28;20056;-82
2022/03/12 10:56:50;;;;;;;0.20;0.20;;;;;;;5.74;38.52;101600.28;5037741;28;20057;-83
2022/03/12 10:59:24;;;;;;;0.20;0.20;;;;;;;5.81;39.29;101605.63;5033872;28;20053;-84
2022/03/12 11:02:01;;;;;;;0.20;0.20;;;;;;;5.97;38.89;101598.78;5037717;28;20064;-84
2022/03/12 11:04:34;;;;;;;0.20;0.20;;;;;;;5.99;36.64;101585.91;5021266;28;20053;-83
2022/03/12 11:07:23;;;;;;;0.20;0.20;;;;;;;5.95;37.53;101604.44;5031797;28;20057;-84
2022/03/12 11:09:58;;;;;;;0.20;0.20;;;;;;;5.89;38.19;101593.69;5017564;28;20052;-83
2022/03/12 11:12:35;;;;;;;0.20;0.20;;;;;;;5.91;37.69;101596.97;5019419;28;20057;-84
2022/03/12 11:15:06;;;;;;;0.20;0.20;;;;;;;5.92;37.57;101590.53;5020202;28;20068;-83
2022/03/12 11:17:44;;;;;;;0.20;0.20;;;;;;;5.99;38.49;101595.88;5013689;28;20591;-83
2022/03/12 11:20:28;;;;;;;;;;;;;;;6.08;37.39;101598.06;5030660;28;20497;-82
2022/03/12 11:23:07;;;;;;;0.20;0.20;;;;;;;6.04;37.18;101596.84;5019069;28;19929;-81
2022/03/12 11:25:54;;;;;;;0.20;0.20;;;;;;;6.09;37.68;101593.47;5017870;28;20049;-84
2022/03/12 11:28:28;;;;;;;0.20;0.20;;;;;;;6.25;37.27;101581.22;5023161;28;20068;-85
2022/03/12 11:31:03;;;;;;;0.20;0.20;;;;;;;6.21;38.08;101591.66;5031892;28;20835;-83
2022/03/12 11:33:38;;;;;;;0.20;0.20;;;;;;;6.20;38.39;101554.03;5028533;28;20060;-82
2022/03/12 11:36:09;;;;;;;0.20;0.20;;;;;;;6.43;36.15;101585.75;5027473;28;20060;-83
2022/03/12 11:38:39;;;;;;;0.10;0.10;;;;;;;6.45;36.74;101573.66;5027168;28;20053;-87
2022/03/12 11:41:24;;;;;;;0.20;0.20;;;;;;;6.66;37.35;101565.22;5018931;28;20529;-84
2022/03/12 11:44:02;;;;;;;0.20;0.20;;;;;;;6.64;35.88;101551.94;5020150;28;20137;-85
2022/03/12 11:46:30;;;;;;;0.20;0.20;;;;;;;6.79;35.71;101568.56;5029143;28;20379;-85
2022/03/12 11:49:05;;;;;;;0.20;0.20;;;;;;;6.78;35.87;101566.06;5024532;28;20064;-84
2022/03/12 11:51:39;;;;;;;0.20;0.20;;;;;;;6.64;36.49;101554.63;5020412;28;20061;-83
2022/03/12 11:54:12;;;;;;;0.20;0.20;;;;;;;6.60;36.27;101551.59;5020148;28;20053;-86
2022/03/12 11:56:45;;;;;;;0.73;0.20;;;;;;;6.67;36.94;101556.06;5023015;28;20770;-84